M I D A S
Marine Information and Data Acquisition System
Tripno 857 of the Zeeleeuw from 2005-03-07 07:35:17 to 2005-03-07 18:04:43
Back to CruiseResearch ActivitiesStationsMapUnderway DataData graphs

EquipmentUnitsComment
TimeDGPSUTC
LatitudeDGPSDM.mWGS84
LongitudeDGPSDM.mWGS84
HeadingGyrodeg 
SOGDGPSknotsSpeed over ground
COGDGPSdegCourse over ground
DepthEcho soundermeters200 kHz
Missing or incorrect values are displayed as -999
Navigation data collected by the RV Zeeleeuw from 2005-03-07 07:28:23 to 2005-03-07 18:04:00
Time Latitude Longitude Heading SOG COG Depth
2005-03-07 07:29:29 51°13.61 2°56.053 119.7 3.2 297 -999
2005-03-07 07:30:29 51°13.641 2°55.95 119.5 5.1 297 -999
2005-03-07 07:31:29 51°13.68 2°55.818 115.4 5.8 294 -999
2005-03-07 07:32:29 51°13.695 2°55.753 95 0.4 64 -999
2005-03-07 07:33:29 51°13.713 2°55.785 24 0.5 31 -999
2005-03-07 07:34:29 51°13.717 2°55.777 353.4 3.3 347 5.4
2005-03-07 07:35:28 51°13.779 2°55.683 318.1 6.5 315 11.3
2005-03-07 07:36:29 51°13.896 2°55.576 339.9 8.6 336 11
2005-03-07 07:37:29 51°14.03 2°55.486 341.1 8.4 336 10.9
2005-03-07 07:38:28 51°14.151 2°55.398 337.3 8.5 333 10.9
2005-03-07 07:39:28 51°14.269 2°55.245 317.6 9.4 313 11
2005-03-07 07:40:28 51°14.366 2°55.048 313.5 9.4 310 11
2005-03-07 07:41:28 51°14.5 2°54.908 331.9 10.4 330 11.2
2005-03-07 07:42:28 51°14.658 2°54.758 333.7 11.3 332 11
2005-03-07 07:43:29 51°14.836 2°54.6 333.4 12.6 331 11
2005-03-07 07:44:28 51°15.018 2°54.426 332.8 12.7 328 10
2005-03-07 07:45:29 51°15.204 2°54.257 334.5 12.8 331 10.6
2005-03-07 07:46:28 51°15.387 2°54.09 333.4 12.9 330 11
2005-03-07 07:47:28 51°15.568 2°53.915 335.4 12.6 332 11.7
2005-03-07 07:48:28 51°15.753 2°53.751 334.5 12.6 331 12.6
2005-03-07 07:49:29 51°15.94 2°53.589 333.8 12.7 332 12.7
2005-03-07 07:50:29 51°16.122 2°53.432 334.2 12.6 332 13.1
2005-03-07 07:51:28 51°16.305 2°53.276 334.1 12.7 332 13.5
2005-03-07 07:52:28 51°16.489 2°53.117 334.1 12.7 332 13.7
2005-03-07 07:53:28 51°16.672 2°52.956 333.7 12.6 330 13
2005-03-07 07:54:28 51°16.847 2°52.805 337.4 12.2 335 11.2
2005-03-07 07:55:28 51°17.039 2°52.674 340.5 12.7 338 11.9
2005-03-07 07:56:28 51°17.232 2°52.547 340.7 12.5 337 11.7
2005-03-07 07:57:28 51°17.427 2°52.416 340.8 12.7 337 11.8
2005-03-07 07:58:29 51°17.632 2°52.339 351.5 12.6 348 12
2005-03-07 07:59:28 51°17.838 2°52.283 357 12.8 356 12.3
2005-03-07 08:00:28 51°18.047 2°52.279 6.4 12.9 6 12.2
2005-03-07 08:01:28 51°18.249 2°52.407 27.4 13.2 25 12.7
2005-03-07 08:02:28 51°18.452 2°52.546 25.6 13.1 23 -999
2005-03-07 08:03:28 51°18.654 2°52.676 24.1 13 22 13.3
2005-03-07 08:04:28 51°18.852 2°52.806 24.5 12.6 23 13.7
2005-03-07 08:05:28 51°19.051 2°52.941 26.1 13.1 24 13.9
2005-03-07 08:06:28 51°19.248 2°53.08 27.2 12.9 22 14.2
2005-03-07 08:07:28 51°19.442 2°53.216 26.3 12.7 25 15.2
2005-03-07 08:08:29 51°19.641 2°53.354 25.4 12.9 24 15.9
2005-03-07 08:09:28 51°19.834 2°53.484 24.5 12.9 23 16.7
2005-03-07 08:10:28 51°20.026 2°53.621 27 12 24 16.9
2005-03-07 08:11:28 51°20.225 2°53.758 25.6 13.2 23 17.7
2005-03-07 08:12:29 51°20.426 2°53.896 24.9 12.9 23 18.2
2005-03-07 08:13:28 51°20.62 2°54.032 25.4 13.2 24 18.1
2005-03-07 08:14:29 51°20.822 2°54.171 26.1 13.3 24 18.2
2005-03-07 08:15:28 51°21.014 2°54.312 29 13.2 27 18.6
2005-03-07 08:16:28 51°21.209 2°54.465 27.6 13.4 26 18.7
2005-03-07 08:17:29 51°21.407 2°54.626 29.3 13.3 27 18.6
2005-03-07 08:18:28 51°21.602 2°54.784 28.7 13.2 28 19.2
2005-03-07 08:19:28 51°21.8 2°54.941 28.2 13.2 26 19.1
2005-03-07 08:20:28 51°21.998 2°55.09 24.4 13.2 23 19.4
2005-03-07 08:21:29 51°22.198 2°55.228 25 13 24 20.3
2005-03-07 08:22:28 51°22.399 2°55.37 26 13.2 24 20.5
2005-03-07 08:23:28 51°22.593 2°55.516 26 13.2 26 20.4
2005-03-07 08:24:28 51°22.789 2°55.661 24.6 13.3 24 20.5
2005-03-07 08:25:29 51°22.99 2°55.801 25.6 12.9 24 20.7
2005-03-07 08:26:28 51°23.19 2°55.94 25.4 13.2 24 21.5
2005-03-07 08:27:28 51°23.383 2°56.08 24.8 12.8 24 21.4
2005-03-07 08:28:28 51°23.585 2°56.222 25.3 13.2 24 20.4
2005-03-07 08:29:28 51°23.786 2°56.366 24.4 13 24 18.1
2005-03-07 08:30:29 51°23.986 2°56.513 25.4 13.1 25 17.8
2005-03-07 08:31:29 51°24.185 2°56.654 24.9 12.8 25 17.6
2005-03-07 08:32:28 51°24.381 2°56.8 25.6 12.9 25 18.7
2005-03-07 08:33:28 51°24.578 2°56.947 26.1 12.5 26 21
2005-03-07 08:34:28 51°24.778 2°57.083 22.9 13 23 23.4
2005-03-07 08:35:29 51°24.982 2°57.219 23.4 13.5 23 24.7
2005-03-07 08:36:28 51°25.18 2°57.356 22.6 13.2 21 25.9
2005-03-07 08:37:29 51°25.388 2°57.492 22.9 13.4 23 26.7
2005-03-07 08:38:28 51°25.585 2°57.624 23.6 13.1 24 26.7
2005-03-07 08:39:28 51°25.788 2°57.758 24 13.3 23 25.9
2005-03-07 08:40:29 51°25.992 2°57.891 23.5 12.9 24 24.3
2005-03-07 08:41:28 51°26.193 2°58.024 23.7 13.1 23 21.1
2005-03-07 08:42:28 51°26.398 2°58.158 22.4 13.4 23 20.5
2005-03-07 08:43:28 51°26.6 2°58.291 22.8 12.7 22 18.8
2005-03-07 08:44:28 51°26.793 2°58.426 23.4 12.9 23 19
2005-03-07 08:45:28 51°26.993 2°58.554 21.7 13 21 18.3
2005-03-07 08:46:28 51°27.19 2°58.707 27.1 13.1 26 20.4
2005-03-07 08:47:29 51°27.378 2°58.869 27.6 12.8 28 18.5
2005-03-07 08:48:28 51°27.546 2°59.084 44.4 13.5 44 21.8
2005-03-07 08:49:28 51°27.692 2°59.359 51.9 13.8 51 20.1
2005-03-07 08:50:28 51°27.836 2°59.649 51.8 13.9 51 20.8
2005-03-07 08:51:28 51°27.978 2°59.936 51.7 13.7 51 20.9
2005-03-07 08:52:28 51°28.112 3°0.231 55.8 13.8 54 22.5
2005-03-07 08:53:28 51°28.244 3°0.526 55.1 13.5 56 21.8
2005-03-07 08:54:28 51°28.377 3°0.82 55.8 13.8 52 22.6
2005-03-07 08:55:28 51°28.514 3°1.112 55.3 13.9 54 22.9
2005-03-07 08:56:28 51°28.648 3°1.408 56.2 13.3 55 23.3
2005-03-07 08:57:28 51°28.784 3°1.696 55.3 13.9 53 23.8
2005-03-07 08:58:29 51°28.927 3°2 54 13.5 53 23.7
2005-03-07 08:59:28 51°29.066 3°2.292 53.7 13.9 52 24.4
2005-03-07 09:00:29 51°29.205 3°2.591 55.1 13.8 52 24.7
2005-03-07 09:01:28 51°29.343 3°2.885 54.3 13.6 53 24.3
2005-03-07 09:02:28 51°29.483 3°3.179 52.9 13.9 53 25
2005-03-07 09:03:28 51°29.621 3°3.476 53.7 14 53 24.4
2005-03-07 09:04:28 51°29.76 3°3.77 52.9 13.8 49 24.8
2005-03-07 09:05:28 51°29.899 3°4.067 54.7 14 54 23.9
2005-03-07 09:06:29 51°30.041 3°4.368 55.3 13.8 54 24.3
2005-03-07 09:07:28 51°30.181 3°4.659 53.4 13.7 53 23.7
2005-03-07 09:08:28 51°30.317 3°4.948 54.3 14 54 24.6
2005-03-07 09:09:28 51°30.458 3°5.245 53.7 13.8 52 23.1
2005-03-07 09:10:28 51°30.592 3°5.534 54 13.7 54 23.8
2005-03-07 09:11:28 51°30.727 3°5.825 53.2 13.8 54 24.9
2005-03-07 09:12:29 51°30.868 3°6.123 55.8 13.8 54 24.7
2005-03-07 09:13:28 51°31.004 3°6.416 53.7 13.5 54 23.6
2005-03-07 09:14:28 51°31.143 3°6.703 53.7 13.6 53 22.9
2005-03-07 09:15:28 51°31.282 3°6.998 54.5 13.9 52 23.6
2005-03-07 09:16:29 51°31.423 3°7.292 54.4 13.9 51 24.4
2005-03-07 09:17:28 51°31.558 3°7.584 54.8 13.7 53 24.2
2005-03-07 09:18:29 51°31.692 3°7.876 55.1 13.6 51 24
2005-03-07 09:19:28 51°31.828 3°8.167 54.4 13.9 52 24.4
2005-03-07 09:20:29 51°31.973 3°8.467 54.3 13.9 53 25.1
2005-03-07 09:21:28 51°32.112 3°8.757 52.8 14 51 25.8
2005-03-07 09:22:28 51°32.253 3°9.054 55.5 13.8 53 25.8
2005-03-07 09:23:28 51°32.389 3°9.354 55 13.7 54 26.9
2005-03-07 09:24:28 51°32.523 3°9.645 53.8 13.9 52 27.6
2005-03-07 09:25:28 51°32.661 3°9.94 53.3 13.8 52 27.2
2005-03-07 09:26:28 51°32.799 3°10.243 55.1 13.8 53 28.2
2005-03-07 09:27:28 51°32.94 3°10.542 53 14 53 28.3
2005-03-07 09:28:28 51°33.081 3°10.841 55.4 14.2 56 28.2
2005-03-07 09:29:28 51°33.224 3°11.143 54.3 14.2 53 29.8
2005-03-07 09:30:29 51°33.368 3°11.444 54 13.9 55 30.7
2005-03-07 09:31:28 51°33.508 3°11.733 52.9 14.1 51 31
2005-03-07 09:32:28 51°33.651 3°12.032 53.6 14.1 52 30.9
2005-03-07 09:33:28 51°33.796 3°12.331 54.3 14.3 55 31.2
2005-03-07 09:34:28 51°33.942 3°12.632 53.5 14.1 50 31.2
2005-03-07 09:35:28 51°34.088 3°12.933 53.8 14.5 52 31.4
2005-03-07 09:36:28 51°34.232 3°13.237 54.1 14.6 57 31.5
2005-03-07 09:37:28 51°34.375 3°13.535 55.6 14.1 55 32
2005-03-07 09:38:28 51°34.522 3°13.842 54.2 14.4 54 32.6
2005-03-07 09:39:29 51°34.667 3°14.15 54.4 14.4 52 33.4
2005-03-07 09:40:28 51°34.81 3°14.449 55.2 14.3 55 32.8
2005-03-07 09:41:29 51°34.953 3°14.758 54.4 14.1 53 33.6
2005-03-07 09:42:29 51°35.097 3°15.056 54 14.2 51 32.8
2005-03-07 09:43:29 51°35.236 3°15.354 53.3 13.7 50 32.3
2005-03-07 09:44:29 51°35.381 3°15.65 54.6 14.1 54 32.3
2005-03-07 09:45:28 51°35.519 3°15.945 55.6 13.9 56 33.2
2005-03-07 09:46:28 51°35.663 3°16.242 53 14.2 49 33
2005-03-07 09:47:28 51°35.809 3°16.538 53.9 14.2 53 32
2005-03-07 09:48:28 51°35.956 3°16.838 53.8 14.5 52 32.7
2005-03-07 09:49:28 51°36.105 3°17.14 54.2 14.5 50 31.9
2005-03-07 09:50:29 51°36.256 3°17.441 53.5 14.5 50 32.3
2005-03-07 09:51:28 51°36.405 3°17.741 55.8 14.4 49 32.4
2005-03-07 09:52:28 51°36.554 3°18.047 54.1 14.3 52 31.8
2005-03-07 09:53:28 51°36.703 3°18.345 53.7 14.2 51 31.4
2005-03-07 09:54:29 51°36.855 3°18.642 54.6 14.3 51 31.9
2005-03-07 09:55:29 51°37.008 3°18.942 54.9 14.5 52 31.5
2005-03-07 09:56:29 51°37.157 3°19.246 54.3 14.6 52 31.6
2005-03-07 09:57:28 51°37.304 3°19.542 52.9 14.2 50 31.1
2005-03-07 09:58:28 51°37.45 3°19.841 54.3 14 52 30.8
2005-03-07 09:59:28 51°37.597 3°20.141 55.3 14.3 50 29.9
2005-03-07 10:00:28 51°37.745 3°20.438 54.2 14.5 50 30.1
2005-03-07 10:01:28 51°37.895 3°20.735 54.2 14.2 52 30
2005-03-07 10:02:28 51°38.044 3°21.032 53.1 14.3 50 29.7
2005-03-07 10:03:28 51°38.189 3°21.324 55.2 14.2 52 28.7
2005-03-07 10:04:28 51°38.34 3°21.62 52.8 14.3 49 28.6
2005-03-07 10:05:28 51°38.492 3°21.913 53.7 14.4 51 27.6
2005-03-07 10:06:28 51°38.642 3°22.214 54.4 13.9 53 26
2005-03-07 10:07:28 51°38.787 3°22.511 57.2 14.2 51 25.8
2005-03-07 10:08:29 51°38.938 3°22.811 54.1 14.3 52 25.2
2005-03-07 10:09:28 51°39.083 3°23.109 54 14.2 50 23.8
2005-03-07 10:10:28 51°39.231 3°23.404 54.3 14 53 23.3
2005-03-07 10:11:28 51°39.377 3°23.706 54.1 14.3 53 22.8
2005-03-07 10:12:28 51°39.523 3°24.002 53.7 14.1 49 22.8
2005-03-07 10:13:28 51°39.672 3°24.302 53.8 14.2 51 21.8
2005-03-07 10:14:28 51°39.818 3°24.596 54.4 14.2 50 21.4
2005-03-07 10:15:28 51°39.965 3°24.892 55.6 14 53 20.5
2005-03-07 10:16:28 51°40.11 3°25.187 54.4 14.1 53 20.6
2005-03-07 10:17:29 51°40.261 3°25.486 53.8 14.1 49 20.7
2005-03-07 10:18:28 51°40.41 3°25.777 53.6 14.2 51 20.8
2005-03-07 10:19:29 51°40.562 3°26.075 53.6 14.3 50 20.5
2005-03-07 10:20:28 51°40.732 3°26.333 43.2 14.2 40 18.3
2005-03-07 10:21:29 51°40.908 3°26.575 41.5 13.9 40 17.6
2005-03-07 10:22:28 51°41.083 3°26.81 42.7 14.3 36 18
2005-03-07 10:23:28 51°41.265 3°27.052 42.6 14.3 39 18.9
2005-03-07 10:24:28 51°41.446 3°27.295 43.3 14.1 40 18.8
2005-03-07 10:25:29 51°41.626 3°27.536 42.2 13.7 40 18.7
2005-03-07 10:26:28 51°41.803 3°27.771 41.9 14.1 41 17.8
2005-03-07 10:27:28 51°41.985 3°28.014 42.2 14.2 41 15.3
2005-03-07 10:28:28 51°42.168 3°28.253 39.9 14.2 39 13.3
2005-03-07 10:29:28 51°42.354 3°28.483 39.1 14.2 37 13.9
2005-03-07 10:30:28 51°42.541 3°28.713 40.7 14 39 16.3
2005-03-07 10:31:28 51°42.732 3°28.943 38.1 14.1 36 17
2005-03-07 10:32:28 51°42.925 3°29.161 37.9 14 35 17.3
2005-03-07 10:33:29 51°43.114 3°29.381 37.7 14 33 17.8
2005-03-07 10:34:29 51°43.306 3°29.601 38.5 13.8 35 18.8
2005-03-07 10:35:28 51°43.497 3°29.818 38.2 14.4 35 19.8
2005-03-07 10:36:29 51°43.69 3°30.045 39.8 14.5 36 20.9
2005-03-07 10:37:28 51°43.874 3°30.281 41.8 14.6 36 19
2005-03-07 10:38:29 51°44.064 3°30.523 41.3 14.4 38 20.4
2005-03-07 10:39:29 51°44.248 3°30.764 41.3 14.4 40 20.2
2005-03-07 10:40:28 51°44.431 3°31.007 41.8 14.5 39 21.6
2005-03-07 10:41:28 51°44.616 3°31.255 46.6 14.6 45 20.7
2005-03-07 10:42:28 51°44.778 3°31.547 53.3 14.5 50 22.1
2005-03-07 10:43:28 51°44.906 3°31.874 68.3 14.3 63 19.8
2005-03-07 10:44:28 51°45 3°32.237 77.3 14.5 69 20.9
2005-03-07 10:45:29 51°45.057 3°32.625 82.6 14.7 78 19.1
2005-03-07 10:46:28 51°45.117 3°33.009 79.4 15.1 76 16.4
2005-03-07 10:47:29 51°45.178 3°33.397 79.8 15 76 15.3
2005-03-07 10:48:28 51°45.239 3°33.769 80.7 14.6 73 14.6
2005-03-07 10:49:28 51°45.294 3°34.149 80.3 14.1 77 13.7
2005-03-07 10:50:28 51°45.354 3°34.524 81.2 14.4 73 14.2
2005-03-07 10:51:28 51°45.415 3°34.896 80.2 14.8 75 14
2005-03-07 10:52:28 51°45.477 3°35.274 79.9 14.4 75 14.1
2005-03-07 10:53:29 51°45.541 3°35.652 79.9 14.4 75 14
2005-03-07 10:54:28 51°45.604 3°36.019 79.9 14.7 70 13.9
2005-03-07 10:55:28 51°45.671 3°36.392 80 14.7 76 13.4
2005-03-07 10:56:29 51°45.728 3°36.687 74.1 8.6 69 13.2
2005-03-07 10:57:28 51°45.762 3°36.84 94.8 5.4 84 12.9
2005-03-07 10:58:28 51°45.766 3°36.911 135 1.1 45 13.1
2005-03-07 10:59:28 51°45.775 3°36.942 151.6 1.5 77 12.7
2005-03-07 11:00:28 51°45.777 3°36.976 164.4 1.4 90 12.9
2005-03-07 11:01:29 51°45.774 3°37.01 174 1 106 12.9
2005-03-07 11:02:29 51°45.765 3°37.04 185.1 1.5 140 12.9
2005-03-07 11:03:28 51°45.722 3°37.05 199.1 3.4 185 12.3
2005-03-07 11:04:28 51°45.666 3°37.021 217 3.4 213 12.1
2005-03-07 11:05:29 51°45.624 3°36.969 233.7 3 230 11.9
2005-03-07 11:06:28 51°45.601 3°36.903 249.7 2.7 246 12.3
2005-03-07 11:07:28 51°45.583 3°36.843 244.8 2.4 243 12.6
2005-03-07 11:08:28 51°45.555 3°36.782 239.1 3.1 237 12.6
2005-03-07 11:09:28 51°45.525 3°36.711 239.5 3.4 228 12.5
2005-03-07 11:10:29 51°45.494 3°36.641 239 3.2 242 12.7
2005-03-07 11:11:28 51°45.464 3°36.576 240.9 3 238 12.7
2005-03-07 11:12:29 51°45.436 3°36.51 239.6 3 243 12.4
2005-03-07 11:13:29 51°45.406 3°36.442 240.5 3.1 228 12.2
2005-03-07 11:14:28 51°45.378 3°36.377 240.2 2.9 236 12.5
2005-03-07 11:15:29 51°45.349 3°36.309 240.9 3.1 234 12.4
2005-03-07 11:16:28 51°45.322 3°36.243 240.7 3 235 12.8
2005-03-07 11:17:28 51°45.295 3°36.176 240.2 3 237 12.5
2005-03-07 11:18:28 51°45.266 3°36.112 237.8 2.9 234 12.5
2005-03-07 11:19:28 51°45.237 3°36.043 240 3.1 246 12.6
2005-03-07 11:20:29 51°45.21 3°35.972 241.7 3.1 236 12.9
2005-03-07 11:21:29 51°45.182 3°35.905 240.4 3.1 238 13
2005-03-07 11:22:28 51°45.153 3°35.839 239.9 3.1 248 12.8
2005-03-07 11:23:28 51°45.127 3°35.77 242.2 3.1 237 13.1
2005-03-07 11:24:29 51°45.098 3°35.7 240.5 3.2 241 12.9
2005-03-07 11:25:28 51°45.07 3°35.631 241 3.1 241 13.3
2005-03-07 11:26:28 51°45.043 3°35.561 241.8 3.1 230 13.2
2005-03-07 11:27:29 51°45.015 3°35.491 240.6 3.1 240 13.4
2005-03-07 11:28:29 51°44.985 3°35.425 233.8 3.1 229 13.5
2005-03-07 11:29:29 51°44.949 3°35.366 231.5 3 224 13.3
2005-03-07 11:30:29 51°44.913 3°35.305 233.1 3.1 227 13.4
2005-03-07 11:31:28 51°44.878 3°35.245 233.3 3.1 235 13.3
2005-03-07 11:32:28 51°44.843 3°35.185 231.9 3 228 13.5
2005-03-07 11:33:28 51°44.81 3°35.126 233.4 3.1 231 13.4
2005-03-07 11:34:28 51°44.776 3°35.065 231.6 3.1 218 13.5
2005-03-07 11:35:28 51°44.739 3°35.003 232.2 3.1 232 13.5
2005-03-07 11:36:28 51°44.707 3°34.942 232.9 3 232 13.3
2005-03-07 11:37:29 51°44.672 3°34.876 234.5 3.2 239 13.4
2005-03-07 11:38:29 51°44.638 3°34.812 235.1 3 234 13.4
2005-03-07 11:39:28 51°44.616 3°34.742 249.2 3 249 13.5
2005-03-07 11:40:29 51°44.6 3°34.667 252.4 3 258 13.4
2005-03-07 11:41:28 51°44.598 3°34.589 268.5 2.9 279 13.6
2005-03-07 11:42:28 51°44.616 3°34.517 290.3 3.1 304 13.7
2005-03-07 11:43:29 51°44.638 3°34.479 293.3 1.2 316 13.6
2005-03-07 11:44:29 51°44.652 3°34.468 293.5 0.7 341 13.8
2005-03-07 11:45:28 51°44.665 3°34.462 297.9 1.1 333 14.1
2005-03-07 11:46:29 51°44.701 3°34.449 343.3 3.1 357 14.2
2005-03-07 11:47:29 51°44.774 3°34.482 17.8 5 21 14.1
2005-03-07 11:48:29 51°44.846 3°34.548 28.7 4.5 31 14.4
2005-03-07 11:49:29 51°44.907 3°34.625 41.4 -999 -999 14.6
2005-03-07 11:50:29 51°44.954 3°34.721 59.3 4.1 59 14.7
2005-03-07 11:51:28 51°44.985 3°34.803 63.8 3.4 58 14.6
2005-03-07 11:52:29 51°45.012 3°34.875 64.9 2.9 59 14.4
2005-03-07 11:53:29 51°45.035 3°34.941 67.2 2.8 67 14.4
2005-03-07 11:54:29 51°45.056 3°35.003 70.4 2.6 60 14.6
2005-03-07 11:55:28 51°45.074 3°35.064 73.7 2.6 58 14.7
2005-03-07 11:56:28 51°45.092 3°35.127 76.5 2.5 62 14.4
2005-03-07 11:57:29 51°45.11 3°35.191 75.6 2.6 64 14.2
2005-03-07 11:58:29 51°45.128 3°35.257 77 2.7 70 14.2
2005-03-07 11:59:28 51°45.145 3°35.324 79.2 2.7 71 14.2
2005-03-07 12:00:28 51°45.162 3°35.396 80.8 2.9 67 13.8
2005-03-07 12:01:28 51°45.18 3°35.47 81.1 2.8 72 13.8
2005-03-07 12:02:28 51°45.197 3°35.544 80.6 3.1 64 13.5
2005-03-07 12:03:29 51°45.216 3°35.619 79.7 3 68 13.5
2005-03-07 12:04:29 51°45.234 3°35.694 80.2 3 70 13.2
2005-03-07 12:05:29 51°45.253 3°35.769 79.6 3.1 72 13.1
2005-03-07 12:06:28 51°45.271 3°35.843 82.5 2.9 68 12.9
2005-03-07 12:07:29 51°45.289 3°35.918 81.3 2.9 70 13
2005-03-07 12:08:29 51°45.31 3°35.992 74.3 3.1 61 13
2005-03-07 12:09:28 51°45.332 3°36.063 73.7 3 62 12.6
2005-03-07 12:10:29 51°45.354 3°36.136 73.9 3 63 12.6
2005-03-07 12:11:28 51°45.377 3°36.206 74.1 3.1 67 12.5
2005-03-07 12:12:29 51°45.4 3°36.282 72.8 3.1 61 12.5
2005-03-07 12:13:28 51°45.423 3°36.354 71.1 3.1 59 12.2
2005-03-07 12:14:28 51°45.449 3°36.425 67.1 3 57 12.2
2005-03-07 12:15:28 51°45.476 3°36.496 67.2 3.1 64 12.4
2005-03-07 12:16:29 51°45.501 3°36.567 67.9 3 63 11.6
2005-03-07 12:17:29 51°45.527 3°36.638 68.9 3 60 12.6
2005-03-07 12:18:29 51°45.553 3°36.709 68.9 3.1 60 12.4
2005-03-07 12:19:28 51°45.579 3°36.781 68.9 3.2 60 12.2
2005-03-07 12:20:29 51°45.603 3°36.852 70.7 3 65 12
2005-03-07 12:21:29 51°45.628 3°36.923 69.2 3 58 12
2005-03-07 12:22:29 51°45.652 3°36.993 70.5 2.9 62 12.1
2005-03-07 12:23:28 51°45.675 3°37.06 73.5 2.9 67 11.8
2005-03-07 12:24:29 51°45.693 3°37.133 91.4 2.8 72 12.2
2005-03-07 12:25:28 51°45.705 3°37.207 90.9 2.9 76 12
2005-03-07 12:26:29 51°45.72 3°37.282 87 2.9 72 11.8
2005-03-07 12:27:28 51°45.738 3°37.357 81.5 3.1 71 11.5
2005-03-07 12:28:29 51°45.758 3°37.43 84 2.9 67 11.3
2005-03-07 12:29:28 51°45.77 3°37.495 92.9 2.4 72 11.6
2005-03-07 12:30:29 51°45.784 3°37.551 85.6 2.1 69 11.8
2005-03-07 12:31:29 51°45.798 3°37.594 76.7 1.7 57 11.5
2005-03-07 12:32:28 51°45.813 3°37.63 68.6 1.6 50 11.8
2005-03-07 12:33:29 51°45.829 3°37.665 61.3 1.5 52 11.6
2005-03-07 12:34:28 51°45.846 3°37.697 49.6 1.6 55 12
2005-03-07 12:35:29 51°45.864 3°37.73 44.6 1.8 47 12
2005-03-07 12:36:29 51°45.889 3°37.766 39.9 2.3 43 12.1
2005-03-07 12:37:29 51°45.922 3°37.81 33.4 2.7 40 11.9
2005-03-07 12:38:29 51°45.955 3°37.849 30 2.5 37 11.8
2005-03-07 12:39:29 51°45.986 3°37.888 31.8 2.2 40 12
2005-03-07 12:40:29 51°46.015 3°37.925 31.7 2.3 33 12.1
2005-03-07 12:41:28 51°46.045 3°37.962 30.6 -999 -999 11.8
2005-03-07 12:42:28 51°46.073 3°37.999 30.8 2.2 37 12.4
2005-03-07 12:43:29 51°46.104 3°38.034 26 2.1 30 12.4
2005-03-07 12:44:29 51°46.131 3°38.067 25.9 2.1 36 12.3
2005-03-07 12:45:29 51°46.163 3°38.1 22.5 2.4 35 12.1
2005-03-07 12:46:28 51°46.192 3°38.133 23.5 2.4 39 12.6
2005-03-07 12:47:28 51°46.222 3°38.164 22.7 2.2 32 11.4
2005-03-07 12:48:28 51°46.252 3°38.196 22.2 2 33 12
2005-03-07 12:49:28 51°46.28 3°38.232 26.5 2.2 44 12
2005-03-07 12:50:29 51°46.307 3°38.264 27.6 1.9 40 12
2005-03-07 12:51:29 51°46.329 3°38.291 28.3 1.3 23 11.3
2005-03-07 12:52:28 51°46.345 3°38.318 34.1 1.3 52 11.7
2005-03-07 12:53:29 51°46.365 3°38.359 58.3 2.4 46 11.1
2005-03-07 12:54:29 51°46.354 3°38.471 141.5 6.1 136 11.5
2005-03-07 12:55:28 51°46.272 3°38.413 233.4 7.1 236 11.2
2005-03-07 12:56:29 51°46.162 3°38.21 229.4 11.3 229 12.1
2005-03-07 12:57:28 51°46.043 3°37.948 237 12.1 234 11.8
2005-03-07 12:58:29 51°45.938 3°37.658 239.8 12.3 241 11.8
2005-03-07 12:59:29 51°45.834 3°37.372 242.3 12.5 244 11.6
2005-03-07 13:00:28 51°45.737 3°37.088 241.7 12.5 244 11.7
2005-03-07 13:01:28 51°45.644 3°36.791 243.1 12.3 241 11.6
2005-03-07 13:02:29 51°45.548 3°36.493 242.9 12.3 241 11.8
2005-03-07 13:03:29 51°45.457 3°36.189 245.9 12.2 247 12.6
2005-03-07 13:04:29 51°45.369 3°35.889 245.2 12.6 246 12.8
2005-03-07 13:05:29 51°45.28 3°35.586 245.5 12.5 245 12.9
2005-03-07 13:06:29 51°45.191 3°35.286 245.1 12.6 245 13.6
2005-03-07 13:07:28 51°45.106 3°34.991 245.8 12.5 246 14.3
2005-03-07 13:08:28 51°45.018 3°34.685 244.8 12.6 244 14
2005-03-07 13:09:29 51°44.929 3°34.378 245.6 12.6 245 13.9
2005-03-07 13:10:29 51°44.82 3°34.095 235.5 12.7 233 13.5
2005-03-07 13:11:29 51°44.695 3°33.843 226.8 12.1 230 13.5
2005-03-07 13:12:28 51°44.553 3°33.615 220.6 12.9 219 13.3
2005-03-07 13:13:28 51°44.382 3°33.436 216.1 11.6 211 13.9
2005-03-07 13:14:29 51°44.209 3°33.253 214.3 12 214 14.2
2005-03-07 13:15:29 51°44.04 3°33.077 213 12.2 214 14.8
2005-03-07 13:16:28 51°43.874 3°32.915 210.5 11.4 208 15
2005-03-07 13:17:29 51°43.693 3°32.787 201.8 11.8 201 14.8
2005-03-07 13:18:29 51°43.507 3°32.694 197.6 12.2 189 14.7
2005-03-07 13:19:29 51°43.317 3°32.624 190.7 11.3 190 14.4
2005-03-07 13:20:28 51°43.128 3°32.554 196.4 11.2 189 14
2005-03-07 13:21:28 51°42.938 3°32.51 180.1 11.1 176 13.4
2005-03-07 13:22:29 51°42.75 3°32.603 163.4 12.1 156 12.8
2005-03-07 13:23:29 51°42.569 3°32.717 163.8 11.9 160 13.8
2005-03-07 13:24:28 51°42.394 3°32.837 161.8 11.5 159 13.8
2005-03-07 13:25:28 51°42.217 3°32.949 161.6 11.5 161 13.4
2005-03-07 13:26:29 51°42.036 3°33.073 162.2 11.9 156 12
2005-03-07 13:27:29 51°41.856 3°33.188 157.5 11.6 159 11.5
2005-03-07 13:28:28 51°41.681 3°33.321 155.1 11.7 154 12.8
2005-03-07 13:29:29 51°41.499 3°33.453 158.3 12.4 155 13.6
2005-03-07 13:30:28 51°41.321 3°33.58 160.3 11.9 157 13.3
2005-03-07 13:31:29 51°41.136 3°33.708 159.4 11.4 159 13.2
2005-03-07 13:32:29 51°40.945 3°33.819 165.1 12.5 165 13.4
2005-03-07 13:33:29 51°40.751 3°33.893 167.7 12 166 13.1
2005-03-07 13:34:28 51°40.555 3°33.96 169.4 11.8 168 12.7
2005-03-07 13:35:29 51°40.355 3°33.963 194.9 12.4 198 12.9
2005-03-07 13:36:29 51°40.191 3°33.74 227.7 13.2 228 13.9
2005-03-07 13:37:29 51°40.044 3°33.479 223.2 13.1 225 14.7
2005-03-07 13:38:29 51°39.889 3°33.225 223.6 13.3 226 12.2
2005-03-07 13:39:29 51°39.735 3°32.963 224.2 13.7 227 12.9
2005-03-07 13:40:29 51°39.579 3°32.697 225 13.7 232 15.9
2005-03-07 13:41:29 51°39.476 3°32.37 245.8 13.7 246 17
2005-03-07 13:42:28 51°39.381 3°32.045 246 13.6 245 17
2005-03-07 13:43:29 51°39.281 3°31.712 245.4 13.7 246 18.2
2005-03-07 13:44:29 51°39.171 3°31.397 237.8 13.6 238 16.9
2005-03-07 13:45:29 51°39.017 3°31.142 219.1 13.2 218 14.7
2005-03-07 13:46:29 51°38.817 3°31.012 197.2 13.2 198 12.9
2005-03-07 13:47:29 51°38.61 3°30.904 197.5 13.2 197 11.2
2005-03-07 13:48:29 51°38.406 3°30.789 197.9 13.5 198 10.7
2005-03-07 13:49:29 51°38.2 3°30.67 199.6 13.3 199 10.8
2005-03-07 13:50:28 51°37.997 3°30.55 199.2 13.1 197 10.9
2005-03-07 13:51:29 51°37.791 3°30.428 200.6 13.2 202 10.1
2005-03-07 13:52:29 51°37.588 3°30.296 199 13.5 203 11.3
2005-03-07 13:53:28 51°37.389 3°30.173 200.3 13.4 198 11.1
2005-03-07 13:54:29 51°37.184 3°30.045 200 13.2 199 11.4
2005-03-07 13:55:28 51°37.031 3°29.926 213.7 7.3 219 11.6
2005-03-07 13:56:28 51°36.993 3°29.88 213.8 0.8 262 11.9
2005-03-07 13:57:28 51°36.992 3°29.861 218.8 0.4 244 11.9
2005-03-07 13:58:29 51°36.98 3°29.826 226.9 2.5 242 12
2005-03-07 13:59:28 51°36.954 3°29.739 241.8 4 251 11.8
2005-03-07 14:00:30 51°36.936 3°29.637 251.8 3.8 253 11.4
2005-03-07 14:01:28 51°36.928 3°29.538 263.1 3.7 269 11.4
2005-03-07 14:02:28 51°36.926 3°29.442 265.8 3.5 268 11.2
2005-03-07 14:03:28 51°36.925 3°29.359 265.9 2.9 264 11.3
2005-03-07 14:04:28 51°36.924 3°29.287 262 2.6 265 11.6
2005-03-07 14:05:28 51°36.918 3°29.209 255.3 3.2 262 10.1
2005-03-07 14:06:29 51°36.906 3°29.121 248.9 3.5 251 10.5
2005-03-07 14:07:29 51°36.886 3°29.033 241 3.5 251 10
2005-03-07 14:08:29 51°36.863 3°28.946 237.8 3.6 239 10.1
2005-03-07 14:09:29 51°36.84 3°28.857 242.7 3.6 248 10.2
2005-03-07 14:10:29 51°36.822 3°28.768 245.5 3.5 256 9.8
2005-03-07 14:11:29 51°36.805 3°28.684 244.4 3.2 253 9.6
2005-03-07 14:12:28 51°36.791 3°28.603 245.6 3.2 256 9.5
2005-03-07 14:13:28 51°36.775 3°28.526 245.8 3.1 255 9.5
2005-03-07 14:14:28 51°36.762 3°28.447 244.5 3 250 9.6
2005-03-07 14:15:29 51°36.747 3°28.366 242.5 3.1 253 9.3
2005-03-07 14:16:29 51°36.731 3°28.283 241.3 3.3 254 9.6
2005-03-07 14:17:29 51°36.714 3°28.207 240.8 3 253 9.6
2005-03-07 14:18:29 51°36.698 3°28.128 241.8 3.1 248 9.1
2005-03-07 14:19:28 51°36.684 3°28.051 243.3 3 254 9
2005-03-07 14:20:28 51°36.669 3°27.974 239.9 3 247 9.1
2005-03-07 14:21:28 51°36.653 3°27.899 239 2.8 249 9.6
2005-03-07 14:22:29 51°36.636 3°27.823 240.9 2.8 248 10.3
2005-03-07 14:23:30 51°36.621 3°27.747 242.2 2.9 249 11
2005-03-07 14:24:28 51°36.605 3°27.671 244.3 3 253 10.8
2005-03-07 14:25:29 51°36.59 3°27.594 242.3 3.1 256 11.5
2005-03-07 14:26:28 51°36.576 3°27.519 242.9 2.9 253 11.4
2005-03-07 14:27:28 51°36.56 3°27.443 243.1 3 250 11.4
2005-03-07 14:28:29 51°36.545 3°27.369 244.3 3 252 11.3
2005-03-07 14:29:29 51°36.531 3°27.291 245.2 3 253 11.5
2005-03-07 14:30:29 51°36.517 3°27.213 244 3.1 257 11.3
2005-03-07 14:31:28 51°36.505 3°27.134 251.3 3 264 11.6
2005-03-07 14:32:29 51°36.502 3°27.05 265.9 3.1 267 11.3
2005-03-07 14:33:28 51°36.507 3°26.972 278.1 3 277 11
2005-03-07 14:34:29 51°36.519 3°26.895 289.4 3 282 11.3
2005-03-07 14:35:28 51°36.539 3°26.824 303 3 303 11.3
2005-03-07 14:36:28 51°36.559 3°26.773 310.7 1.9 307 11.4
2005-03-07 14:37:28 51°36.572 3°26.74 314.7 1.4 297 11.1
2005-03-07 14:38:29 51°36.581 3°26.717 319.3 0.8 303 10.6
2005-03-07 14:39:29 51°36.586 3°26.703 328 0.4 295 10.5
2005-03-07 14:40:28 51°36.607 3°26.677 335.3 2.8 328 10.7
2005-03-07 14:41:29 51°36.656 3°26.586 309 4.1 303 10.6
2005-03-07 14:42:29 51°36.687 3°26.497 296.7 3.6 296 9.3
2005-03-07 14:43:29 51°36.71 3°26.412 295.4 3.5 296 10.1
2005-03-07 14:44:29 51°36.736 3°26.328 301.7 3.6 298 8.8
2005-03-07 14:45:29 51°36.759 3°26.25 295.5 3.2 294 10.4
2005-03-07 14:46:30 51°36.777 3°26.181 292.7 2.7 292 11.7
2005-03-07 14:47:29 51°36.79 3°26.119 279.7 2.3 284 11.9
2005-03-07 14:48:29 51°36.794 3°26.058 262.8 2.2 269 10.8
2005-03-07 14:49:28 51°36.79 3°26.003 252.3 2 252 10.9
2005-03-07 14:50:29 51°36.782 3°25.937 245.6 2.6 252 11.8
2005-03-07 14:51:29 51°36.768 3°25.867 237.3 2.7 247 11
2005-03-07 14:52:29 51°36.75 3°25.802 234.4 2.5 240 11.2
2005-03-07 14:53:29 51°36.727 3°25.739 219.2 2.5 233 11.5
2005-03-07 14:54:29 51°36.699 3°25.689 208.3 2.6 227 12
2005-03-07 14:55:29 51°36.668 3°25.642 204.8 2.5 220 11.2
2005-03-07 14:56:29 51°36.636 3°25.595 209.8 2.6 222 9.6
2005-03-07 14:57:28 51°36.607 3°25.539 217.1 2.8 229 9.9
2005-03-07 14:58:29 51°36.58 3°25.479 221.2 2.8 233 10.7
2005-03-07 14:59:29 51°36.555 3°25.417 225 2.8 242 10.7
2005-03-07 15:00:29 51°36.532 3°25.35 226.6 2.8 235 10.8
2005-03-07 15:01:28 51°36.507 3°25.292 219.8 2.7 230 11.3
2005-03-07 15:02:28 51°36.478 3°25.237 211.9 2.7 226 11.3
2005-03-07 15:03:29 51°36.446 3°25.189 205.4 2.6 222 11.3
2005-03-07 15:04:30 51°36.413 3°25.139 210.2 2.5 221 11.2
2005-03-07 15:05:29 51°36.382 3°25.09 213.9 2.5 219 9.8
2005-03-07 15:06:28 51°36.353 3°25.036 218.1 2.7 229 11.8
2005-03-07 15:07:29 51°36.325 3°24.979 222.2 2.7 234 12.3
2005-03-07 15:08:29 51°36.298 3°24.918 225.1 2.8 233 11.9
2005-03-07 15:09:29 51°36.272 3°24.858 226.4 2.9 243 12
2005-03-07 15:10:29 51°36.248 3°24.794 229 2.7 234 11
2005-03-07 15:11:30 51°36.226 3°24.726 234.5 2.9 242 10.4
2005-03-07 15:12:29 51°36.208 3°24.657 246.3 2.8 250 11.1
2005-03-07 15:13:29 51°36.198 3°24.576 255.8 3 262 11.4
2005-03-07 15:14:29 51°36.189 3°24.491 261.2 3.4 261 11.6
2005-03-07 15:15:30 51°36.183 3°24.402 267.7 2.8 264 11.9
2005-03-07 15:16:29 51°36.181 3°24.341 267.1 2 261 11.6
2005-03-07 15:17:30 51°36.179 3°24.297 271.3 1.6 257 11.8
2005-03-07 15:18:28 51°36.177 3°24.267 265.1 1.1 269 11.8
2005-03-07 15:19:30 51°36.174 3°24.245 254.7 0.7 246 11.7
2005-03-07 15:20:30 51°36.17 3°24.227 243 0.7 243 11.7
2005-03-07 15:21:30 51°36.167 3°24.21 232.6 0.6 230 11.7
2005-03-07 15:22:28 51°36.163 3°24.195 226.1 0.7 260 11.8
2005-03-07 15:23:28 51°36.159 3°24.176 226.7 0.8 238 11.4
2005-03-07 15:24:29 51°36.155 3°24.156 228 1.1 268 11.6
2005-03-07 15:25:29 51°36.142 3°24.118 233.7 2.1 240 11.6
2005-03-07 15:26:28 51°36.123 3°24.058 235.4 2.6 239 11.6
2005-03-07 15:27:30 51°36.097 3°23.998 223.3 2.5 231 11.3
2005-03-07 15:28:29 51°36.07 3°23.949 216 2.3 229 10.4
2005-03-07 15:29:28 51°36.044 3°23.904 209 2.2 224 11.1
2005-03-07 15:30:29 51°36.014 3°23.865 203.4 2.3 221 11.4
2005-03-07 15:31:30 51°35.986 3°23.833 197.9 2.1 211 11
2005-03-07 15:32:29 51°35.957 3°23.805 191.2 1.9 204 11.1
2005-03-07 15:33:30 51°35.926 3°23.783 185.1 1.9 200 11.1
2005-03-07 15:34:28 51°35.897 3°23.767 178.3 1.9 194 10.9
2005-03-07 15:35:28 51°35.868 3°23.757 171.8 1.7 194 11
2005-03-07 15:36:29 51°35.835 3°23.738 192.2 2.7 202 10.7
2005-03-07 15:37:28 51°35.781 3°23.667 218.1 4 219 10.4
2005-03-07 15:38:30 51°35.633 3°23.473 216.2 12.9 220 10.7
2005-03-07 15:39:29 51°35.458 3°23.251 217 13.6 217 10.5
2005-03-07 15:40:28 51°35.33 3°22.959 249.4 14 253 9.9
2005-03-07 15:41:30 51°35.323 3°22.572 277.8 14.3 275 9.6
2005-03-07 15:42:29 51°35.35 3°22.202 277.7 14.2 272 9.1
2005-03-07 15:43:29 51°35.339 3°21.819 268.3 14.2 264 9
2005-03-07 15:44:29 51°35.323 3°21.438 269.1 14.2 267 8.9
2005-03-07 15:45:28 51°35.302 3°21.063 267.3 14.3 265 9.6
2005-03-07 15:46:29 51°35.276 3°20.673 267.7 14.6 265 11.9
2005-03-07 15:47:30 51°35.248 3°20.287 266.3 14.4 264 12.8
2005-03-07 15:48:29 51°35.19 3°19.923 254 14.2 249 13.6
2005-03-07 15:49:30 51°35.096 3°19.569 249 14.3 246 14.6
2005-03-07 15:50:29 51°35.003 3°19.223 248.7 14.3 245 14.5
2005-03-07 15:51:28 51°34.892 3°18.891 245.2 14.5 242 14
2005-03-07 15:52:30 51°34.778 3°18.543 244.3 14.4 244 14.2
2005-03-07 15:53:29 51°34.668 3°18.21 246.3 14.4 242 14.7
2005-03-07 15:54:30 51°34.559 3°17.864 244.5 14.3 241 14.1
2005-03-07 15:55:30 51°34.449 3°17.528 244.2 14 242 13.5
2005-03-07 15:56:30 51°34.34 3°17.192 246 14.1 245 15.5
2005-03-07 15:57:28 51°34.236 3°16.871 245.1 14.2 241 15.4
2005-03-07 15:58:28 51°34.13 3°16.53 246.2 14.2 247 16.7
2005-03-07 15:59:30 51°34.02 3°16.186 244.5 14.1 245 17.4
2005-03-07 16:00:29 51°33.912 3°15.853 244.8 14.2 238 18.9
2005-03-07 16:01:30 51°33.793 3°15.522 241.5 14.2 241 18.8
2005-03-07 16:02:29 51°33.672 3°15.195 242.6 14.3 238 19.3
2005-03-07 16:03:29 51°33.546 3°14.871 239.8 14.4 241 19.6
2005-03-07 16:04:28 51°33.419 3°14.556 239.8 14.5 234 19.9
2005-03-07 16:05:29 51°33.286 3°14.231 240.9 14.6 236 19.9
2005-03-07 16:06:30 51°33.158 3°13.905 241.6 14.2 240 20.4
2005-03-07 16:07:30 51°33.027 3°13.584 240.6 14.3 237 20.3
2005-03-07 16:08:28 51°32.901 3°13.276 241.5 14.4 241 20.5
2005-03-07 16:09:30 51°32.767 3°12.941 240.5 14.4 238 20.3
2005-03-07 16:10:28 51°32.638 3°12.63 239.8 14.4 239 20.1
2005-03-07 16:11:29 51°32.507 3°12.3 240.5 14.2 239 20.2
2005-03-07 16:12:29 51°32.375 3°11.982 238.8 14.5 237 20.3
2005-03-07 16:13:29 51°32.242 3°11.656 239.6 14.6 236 20
2005-03-07 16:14:29 51°32.112 3°11.334 239.6 14.3 238 20.1
2005-03-07 16:15:28 51°31.983 3°11.021 240.2 14.3 237 20.4
2005-03-07 16:16:29 51°31.848 3°10.701 241.7 14.6 234 19.9
2005-03-07 16:17:29 51°31.717 3°10.375 240.6 14.6 234 19.8
2005-03-07 16:18:28 51°31.575 3°10.071 236.4 14.5 232 18.3
2005-03-07 16:19:30 51°31.427 3°9.752 234.9 14.7 231 21
2005-03-07 16:20:28 51°31.283 3°9.456 237.6 14.6 237 20.5
2005-03-07 16:21:28 51°31.138 3°9.146 236 14.3 232 21
2005-03-07 16:22:30 51°30.989 3°8.83 236.3 14.7 232 20.8
2005-03-07 16:23:29 51°30.847 3°8.524 237.5 14.8 233 21.2
2005-03-07 16:24:28 51°30.705 3°8.216 237 14.5 236 22.5
2005-03-07 16:25:29 51°30.559 3°7.909 235.3 14.4 235 22.8
2005-03-07 16:26:29 51°30.414 3°7.602 237.2 14.6 229 22.4
2005-03-07 16:27:29 51°30.269 3°7.291 236.4 14.2 236 21.7
2005-03-07 16:28:30 51°30.128 3°6.976 235.8 14.7 231 22
2005-03-07 16:29:28 51°29.986 3°6.677 235.1 14.4 229 22.2
2005-03-07 16:30:28 51°29.842 3°6.365 235.9 14.9 237 21.8
2005-03-07 16:31:30 51°29.691 3°6.049 235 14.8 234 22
2005-03-07 16:32:29 51°29.547 3°5.741 235 14.3 230 21.9
2005-03-07 16:33:30 51°29.4 3°5.43 235.3 14.5 233 22.3
2005-03-07 16:34:29 51°29.256 3°5.123 236.4 14.3 230 22.3
2005-03-07 16:35:30 51°29.111 3°4.807 238.2 14.6 234 22.4
2005-03-07 16:36:28 51°28.972 3°4.497 237 14.7 235 22.3
2005-03-07 16:37:29 51°28.823 3°4.182 236 14.3 233 22.7
2005-03-07 16:38:30 51°28.677 3°3.865 236.6 14.6 236 22.4
2005-03-07 16:39:28 51°28.534 3°3.558 237.4 14.9 234 22.5
2005-03-07 16:40:30 51°28.384 3°3.233 235.7 14.6 231 22.7
2005-03-07 16:41:29 51°28.238 3°2.917 233.8 15.3 231 22.7
2005-03-07 16:42:30 51°28.088 3°2.598 237.4 15.1 233 23
2005-03-07 16:43:29 51°27.945 3°2.278 238.4 15.1 244 22.8
2005-03-07 16:44:29 51°27.822 3°1.939 245.9 14.7 243 23
2005-03-07 16:45:29 51°27.7 3°1.586 245.3 -999 -999 22.6
2005-03-07 16:46:29 51°27.577 3°1.24 244.1 14.9 243 22.4
2005-03-07 16:47:28 51°27.454 3°0.898 244.8 15.2 239 22.6
2005-03-07 16:48:29 51°27.325 3°0.544 244.4 15 243 23.7
2005-03-07 16:49:30 51°27.197 3°0.194 244.9 15.1 241 23.3
2005-03-07 16:50:28 51°27.075 2°59.859 243.7 15.1 241 23.1
2005-03-07 16:51:29 51°26.944 2°59.516 244.1 14.9 241 21.7
2005-03-07 16:52:29 51°26.79 2°59.21 230 15 226 21.4
2005-03-07 16:53:30 51°26.614 2°58.918 227.9 14.9 227 18.8
2005-03-07 16:54:30 51°26.442 2°58.627 230 15.2 224 20.3
2005-03-07 16:55:29 51°26.246 2°58.389 216 15.2 217 20.8
2005-03-07 16:56:30 51°26.037 2°58.17 214 14.8 213 22.8
2005-03-07 16:57:29 51°25.831 2°57.952 214.8 15.2 217 23.6
2005-03-07 16:58:30 51°25.62 2°57.732 211.3 15.3 209 24.1
2005-03-07 16:59:29 51°25.411 2°57.531 213.4 14.4 212 24.3
2005-03-07 17:00:30 51°25.199 2°57.322 208.3 15.2 208 23.8
2005-03-07 17:01:29 51°24.984 2°57.139 209.5 14.7 211 22.5
2005-03-07 17:02:28 51°24.768 2°56.955 209.6 15 207 20.8
2005-03-07 17:03:30 51°24.545 2°56.76 206.8 15.1 212 19
2005-03-07 17:04:30 51°24.328 2°56.569 210.5 14.9 210 18.9
2005-03-07 17:05:30 51°24.11 2°56.382 210 15 209 17.3
2005-03-07 17:06:29 51°23.892 2°56.188 209.7 15.1 208 15.4
2005-03-07 17:07:30 51°23.67 2°55.994 208.1 15.3 212 14.6
2005-03-07 17:08:28 51°23.457 2°55.816 210.4 14.6 205 17.6
2005-03-07 17:09:30 51°23.226 2°55.641 199.1 15.3 205 18.8
2005-03-07 17:10:28 51°22.998 2°55.492 202.3 15.6 204 18.7
2005-03-07 17:11:30 51°22.758 2°55.34 201.9 15.2 205 18
2005-03-07 17:12:30 51°22.526 2°55.202 197.2 14.9 199 17.5
2005-03-07 17:13:30 51°22.292 2°55.068 198.2 14.6 196 18.2
2005-03-07 17:14:30 51°22.06 2°54.941 198.7 14.9 200 18
2005-03-07 17:15:29 51°21.826 2°54.805 199.4 14.5 201 16.9
2005-03-07 17:16:30 51°21.589 2°54.667 199.2 14.9 198 16.3
2005-03-07 17:17:30 51°21.362 2°54.531 202.5 14.4 202 16.4
2005-03-07 17:18:30 51°21.135 2°54.37 205.1 15.6 203 16.2
2005-03-07 17:19:30 51°20.908 2°54.21 203.9 15.2 204 15.8
2005-03-07 17:20:28 51°20.688 2°54.06 201.8 15 203 15.7
2005-03-07 17:21:30 51°20.453 2°53.891 203.8 15.2 201 15.5
2005-03-07 17:22:29 51°20.224 2°53.732 202.4 15.3 203 15.1
2005-03-07 17:23:30 51°19.993 2°53.563 203.6 14.9 208 14.6
2005-03-07 17:24:29 51°19.767 2°53.406 202.7 15.1 206 14
2005-03-07 17:25:30 51°19.536 2°53.25 203 14.9 208 13.1
2005-03-07 17:26:30 51°19.306 2°53.098 203.8 15 206 12.5
2005-03-07 17:27:29 51°19.079 2°52.949 202 14.7 201 11.9
2005-03-07 17:28:30 51°18.847 2°52.791 205.4 15.4 206 11.2
2005-03-07 17:29:28 51°18.628 2°52.645 200.7 15.1 202 10.8
2005-03-07 17:30:30 51°18.395 2°52.481 205.7 15.2 203 10.7
2005-03-07 17:31:28 51°18.161 2°52.404 191.1 15 190 10.2
2005-03-07 17:32:28 51°17.921 2°52.355 187.2 14 187 9.9
2005-03-07 17:33:28 51°17.678 2°52.295 184.5 14.5 186 9.6
2005-03-07 17:34:29 51°17.433 2°52.234 189.7 14.5 187 9.9
2005-03-07 17:35:30 51°17.184 2°52.188 183.6 14.8 182 9.7
2005-03-07 17:36:30 51°16.948 2°52.25 172.4 14 174 9.3
2005-03-07 17:37:30 51°16.719 2°52.356 151.8 14.1 152 9.1
2005-03-07 17:38:28 51°16.505 2°52.499 155.1 14.1 157 11.2
2005-03-07 17:39:30 51°16.275 2°52.633 158.7 14.2 160 11.6
2005-03-07 17:40:29 51°16.053 2°52.746 161.1 14.2 163 11.4
2005-03-07 17:41:29 51°15.831 2°52.857 159.9 14 164 11.2
2005-03-07 17:42:30 51°15.608 2°52.979 156.3 14.2 160 10.8
2005-03-07 17:43:30 51°15.396 2°53.119 153.7 13.8 155 10.1
2005-03-07 17:44:28 51°15.195 2°53.283 149.2 14 154 9.5
2005-03-07 17:45:28 51°15.014 2°53.493 142.1 13.3 147 9.3
2005-03-07 17:46:29 51°14.853 2°53.721 132.7 12.3 132 9.3
2005-03-07 17:47:30 51°14.735 2°53.987 121.7 12.2 126 9.2
2005-03-07 17:48:30 51°14.625 2°54.265 120.4 12.4 120 9.3
2005-03-07 17:49:30 51°14.525 2°54.547 118.9 12 120 9.3
2005-03-07 17:50:30 51°14.437 2°54.834 113.9 12 113 9.3
2005-03-07 17:51:30 51°14.342 2°55.118 126 12.4 121 9.1
2005-03-07 17:52:30 51°14.22 2°55.339 142.3 10.5 141 -999
2005-03-07 17:53:28 51°14.083 2°55.455 159.9 9.2 157 9.2
2005-03-07 17:54:30 51°13.938 2°55.553 159.5 9.2 157 9.3
2005-03-07 17:55:29 51°13.817 2°55.645 153.8 7.2 151 10.4
2005-03-07 17:56:30 51°13.736 2°55.752 137.3 6.5 134 10
2005-03-07 17:57:30 51°13.667 2°55.899 128.4 6.7 125 8.9
2005-03-07 17:58:29 51°13.62 2°56.027 120.1 4.6 115 9.5
2005-03-07 17:59:29 51°13.599 2°56.093 128.2 1.1 124 6.9
2005-03-07 18:00:29 51°13.594 2°56.1 123.7 0.3 95 6.8
2005-03-07 18:01:29 51°13.592 2°56.11 111.5 0.3 66 7
2005-03-07 18:02:29 51°13.592 2°56.11 109.9 0.1 335 6.9
2005-03-07 18:03:28 51°13.594 2°56.102 124.7 0.6 299 5.8